Tuesday, April 24, 2018, 4:27 AM EDT
Back to Local

KHFD, Hartford-brainard Airport

Location: Hartford, CT, United States Lat: 41.733
Local Time: 4:27 AM EDT ( 8:27 GMT) Lon: -72.65
Time Zone: US/Eastern Elev: 19 ft

Show me the last for .
Show Decoded

2018-04-24 03:53 METAR KHFD 240753Z AUTO 18004KT 10SM CLR 05/01 A3041 RMK AO2 SLP299 T00500006 =
2018-04-24 02:53 METAR KHFD 240653Z AUTO 20004KT 10SM CLR 06/01 A3042 RMK AO2 SLP300 T00560006 =
2018-04-24 01:53 METAR KHFD 240553Z AUTO 17004KT 10SM CLR 06/01 A3042 RMK AO2 SLP301 T00610006
                 10133 20061 58007 =
2018-04-24 00:53 METAR KHFD 240453Z AUTO 19004KT 10SM CLR 07/00 A3044 RMK AO2 SLP307 T00670000
                 402000011 =
2018-04-23 23:53 METAR KHFD 240353Z 17004KT 10SM CLR 08/00 A3044 RMK AO2 SLP309 T00780000 =
2018-04-23 22:53 METAR KHFD 240253Z 17005KT 10SM CLR 09/M01 A3044 RMK AO2 SLP308 T00891011 50009
                 =
2018-04-23 21:53 METAR KHFD 240153Z 19005KT 10SM CLR 10/M04 A3045 RMK AO2 SLP309 T01001044 =
2018-04-23 20:53 METAR KHFD 240053Z 18008KT 10SM CLR 12/M04 A3044 RMK AO2 SLP307 T01171044 =
2018-04-23 19:53 METAR KHFD 232353Z 18009KT 10SM CLR 13/M05 A3041 RMK AO2 SLP299 T01331050 10200
                 20133 53007 =
2018-04-23 18:53 METAR KHFD 232253Z 20011KT 10SM CLR 16/M06 A3040 RMK AO2 SLP295 T01561056 =
2018-04-23 17:53 METAR KHFD 232153Z 19014G20KT 10SM CLR 17/M04 A3040 RMK AO2 SLP295 T01721039 =
2018-04-23 16:53 METAR KHFD 232053Z 18010G17KT 10SM CLR 18/M03 A3039 RMK AO2 SLP292 T01831033
                 56016 =
2018-04-23 15:53 METAR KHFD 231953Z VRB03KT 10SM CLR 19/M06 A3040 RMK AO2 SLP294 T01941056 =
2018-04-23 14:53 METAR KHFD 231853Z 00000KT 10SM CLR 19/M07 A3042 RMK AO2 SLP300 T01891072 =
2018-04-23 13:53 METAR KHFD 231753Z VRB04KT 10SM CLR 18/M08 A3044 RMK AO2 SLP308 T01781083 10183
                 20061 58016 =
2018-04-23 12:53 METAR KHFD 231653Z VRB03KT 10SM CLR 17/M07 A3046 RMK AO2 SLP316 T01671067 =
2018-04-23 11:53 METAR KHFD 231553Z 07004KT 10SM CLR 16/M03 A3048 RMK AO2 SLP320 T01611033 =
2018-04-23 10:53 METAR KHFD 231453Z 07003KT 10SM CLR 14/M03 A3049 RMK AO2 SLP324 T01441033 58006
                 =
2018-04-23 09:53 METAR KHFD 231353Z 04005KT 10SM CLR 12/M03 A3050 RMK AO2 SLP329 T01221033 =
2018-04-23 08:53 METAR KHFD 231253Z 33003KT 10SM CLR 09/M03 A3051 RMK AO2 SLP332 T00891033 =
2018-04-23 07:53 METAR KHFD 231153Z 02005KT 10SM CLR 06/M04 A3051 RMK AO2 SLP330 T00611039 10061
                 20011 51016 =
2018-04-23 06:53 METAR KHFD 231053Z 02003KT 10SM CLR 03/M03 A3049 RMK AO2 SLP326 T00331033 =
2018-04-23 05:53 METAR KHFD 230953Z 00000KT 10SM CLR 01/M03 A3047 RMK AO2 SLP318 T00111028 =
2018-04-23 04:53 METAR KHFD 230853Z AUTO 00000KT 10SM CLR 02/M02 A3046 RMK AO2 SLP314 T00221022
                 51016 =

Support USWX by starting your Amazon purchase here.